Time;durP1;ratioP1;P1;durP2;ratioP2;P2;SDS_P1;SDS_P2;PMS_P1;PMS_P2;Temp;Humidity;BMP_temperature;BMP_pressure;BME280_temperature;BME280_humidity;BME280_pressure;Samples;Min_cycle;Max_cycle;Signal;HPM_P1;HPM_P2
2023/03/11 00:01:58;;;;;;;13.55;2.85;;;31.00;99.90;;;;;;5050966;28;20243;-71
2023/03/11 00:04:26;;;;;;;13.00;2.83;;;31.30;99.90;;;;;;5035052;28;20189;-70
2023/03/11 00:06:54;;;;;;;8.90;2.20;;;32.20;99.90;;;;;;5046743;28;20192;-69
2023/03/11 00:09:21;;;;;;;13.98;2.78;;;32.70;99.90;;;;;;5052006;28;20662;-70
2023/03/11 00:11:49;;;;;;;14.25;2.97;;;33.10;99.90;;;;;;5052836;28;20238;-70
2023/03/11 00:14:17;;;;;;;8.95;2.53;;;33.70;99.90;;;;;;5052323;28;20258;-71
2023/03/11 00:16:45;;;;;;;8.90;2.33;;;33.80;99.90;;;;;;5052816;28;20216;-70
2023/03/11 00:19:12;;;;;;;8.15;1.85;;;33.50;99.90;;;;;;5052927;28;20580;-69
2023/03/11 00:21:40;;;;;;;13.52;3.20;;;33.50;99.90;;;;;;5052161;28;20407;-70
2023/03/11 00:24:08;;;;;;;10.85;3.00;;;34.00;99.90;;;;;;5052892;28;20641;-70
2023/03/11 00:26:36;;;;;;;19.52;2.45;;;34.40;99.90;;;;;;5052875;28;20276;-71
2023/03/11 00:29:04;;;;;;;12.40;2.58;;;33.70;99.90;;;;;;5052017;28;20266;-71
2023/03/11 00:31:35;;;;;;;10.13;2.63;;;34.00;99.90;;;;;;5052638;28;20185;-70
2023/03/11 00:34:03;;;;;;;13.68;2.33;;;34.10;99.90;;;;;;5050600;28;20184;-71
2023/03/11 00:36:33;;;;;;;9.98;2.83;;;34.30;99.90;;;;;;5044819;28;20203;-71
2023/03/11 00:39:07;;;;;;;13.02;2.40;;;33.70;99.90;;;;;;5052347;28;20180;-72
2023/03/11 00:44:56;;;;;;;11.07;3.15;;;31.40;99.90;;;;;;5037173;28;20262;-72
2023/03/11 00:47:24;;;;;;;17.33;3.47;;;31.20;99.90;;;;;;5051453;28;20227;-72
2023/03/11 00:49:52;;;;;;;6.53;2.40;;;31.90;99.90;;;;;;5052486;28;20219;-72
2023/03/11 00:52:19;;;;;;;18.27;2.85;;;32.50;99.90;;;;;;5051035;28;20187;-72
2023/03/11 00:54:47;;;;;;;7.50;2.15;;;33.40;99.90;;;;;;5051825;28;20180;-72
2023/03/11 00:57:15;;;;;;;10.20;2.35;;;33.40;99.90;;;;;;5050687;28;20630;-72
2023/03/11 00:59:42;;;;;;;17.98;2.45;;;33.50;99.90;;;;;;5045623;28;20196;-70
2023/03/11 01:02:10;;;;;;;20.23;2.80;;;33.50;99.90;;;;;;5050378;28;20224;-72
2023/03/11 01:04:38;;;;;;;8.10;2.08;;;33.30;99.90;;;;;;5049947;28;20185;-71
2023/03/11 01:07:06;;;;;;;12.32;2.75;;;33.40;99.90;;;;;;5050407;28;20192;-73
2023/03/11 01:09:34;;;;;;;21.30;3.05;;;33.60;99.90;;;;;;5050657;28;20705;-72
2023/03/11 01:12:01;;;;;;;9.35;2.10;;;33.70;99.90;;;;;;5051763;28;20219;-70
2023/03/11 01:14:29;;;;;;;6.82;2.00;;;33.90;99.90;;;;;;5051810;28;20168;-71
2023/03/11 01:16:57;;;;;;;5.88;1.65;;;34.20;99.90;;;;;;5051838;28;20184;-72
2023/03/11 01:19:25;;;;;;;11.38;1.92;;;34.40;99.90;;;;;;5051994;28;20187;-72
2023/03/11 01:21:52;;;;;;;6.63;2.30;;;34.60;99.90;;;;;;5051452;28;20225;-72
2023/03/11 01:24:20;;;;;;;9.40;2.00;;;34.80;98.50;;;;;;5051738;28;20184;-72
2023/03/11 01:26:48;;;;;;;10.77;2.10;;;34.00;98.10;;;;;;5051354;28;20180;-72
2023/03/11 01:29:20;;;;;;;6.97;1.33;;;34.50;97.20;;;;;;5051069;28;20533;-73
2023/03/11 01:31:47;;;;;;;8.60;2.45;;;35.30;95.80;;;;;;5051741;28;20185;-73
2023/03/11 01:34:15;;;;;;;7.68;2.40;;;35.90;88.00;;;;;;5051877;28;20210;-70
2023/03/11 01:36:43;;;;;;;5.90;2.20;;;36.20;84.50;;;;;;5048623;28;20991;-72
2023/03/11 01:39:23;;;;;;;10.25;2.42;;;35.80;79.90;;;;;;5047092;28;20188;-72
2023/03/11 01:41:51;;;;;;;4.68;1.75;;;35.70;78.10;;;;;;5050948;28;20234;-71
2023/03/11 01:44:19;;;;;;;10.80;2.17;;;36.10;78.00;;;;;;5048618;28;20211;-72
2023/03/11 01:46:53;;;;;;;4.53;2.20;;;36.30;82.80;;;;;;5050751;28;20254;-72
2023/03/11 01:49:23;;;;;;;9.82;1.80;;;36.80;75.10;;;;;;5049368;28;20216;-72
2023/03/11 01:51:59;;;;;;;9.40;2.17;;;36.50;67.20;;;;;;5050279;28;20184;-72
2023/03/11 01:54:34;;;;;;;6.93;2.17;;;36.30;75.10;;;;;;5049658;28;20238;-71
2023/03/11 01:57:05;;;;;;;15.40;2.20;;;36.40;69.40;;;;;;5051305;28;20176;-71
2023/03/11 01:59:38;;;;;;;5.65;2.25;;;36.20;56.50;;;;;;5050102;28;20188;-71
2023/03/11 02:02:20;;;;;;;8.43;2.30;;;36.30;57.50;;;;;;5051328;28;20183;-70
2023/03/11 02:04:51;;;;;;;4.57;1.95;;;36.20;59.10;;;;;;5049141;28;20189;-71
2023/03/11 02:07:18;;;;;;;4.25;1.80;;;36.50;58.80;;;;;;5049393;28;20558;-71
2023/03/11 02:09:46;;;;;;;8.27;2.17;;;36.90;54.10;;;;;;5051448;28;20208;-70
2023/03/11 02:12:15;;;;;;;6.32;2.15;;;36.30;52.40;;;;;;5050752;28;20177;-72
2023/03/11 02:14:48;;;;;;;3.80;1.98;;;36.40;51.90;;;;;;5051253;28;20206;-71
2023/03/11 02:17:16;;;;;;;10.35;2.20;;;36.40;51.00;;;;;;5050817;28;20188;-72
2023/03/11 02:20:11;;;;;;;8.30;1.90;;;36.20;54.10;;;;;;5051959;28;20263;-71
2023/03/11 02:22:42;;;;;;;3.83;1.85;;;36.50;50.90;;;;;;5055186;28;20203;-71
2023/03/11 02:25:12;;;;;;;6.70;1.85;;;36.90;49.30;;;;;;5054776;28;20176;-71
2023/03/11 02:27:44;;;;;;;4.40;1.88;;;36.70;48.70;;;;;;5054909;28;20235;-71
2023/03/11 02:30:14;;;;;;;10.13;2.25;;;36.40;47.50;;;;;;5055044;28;20299;-72
2023/03/11 02:32:46;;;;;;;9.57;2.40;;;36.40;50.40;;;;;;5054887;28;20761;-70
2023/03/11 02:35:15;;;;;;;5.03;1.77;;;36.50;51.40;;;;;;5054323;28;20630;-72
2023/03/11 02:37:51;;;;;;;5.47;2.15;;;36.70;49.20;;;;;;5053752;28;20204;-70
2023/03/11 02:40:26;;;;;;;6.47;1.80;;;36.50;47.60;;;;;;5054920;28;20222;-70
2023/03/11 02:43:05;;;;;;;4.28;1.90;;;36.20;45.50;;;;;;5054403;28;20184;-72
2023/03/11 02:48:59;;;;;;;14.77;2.58;;;36.20;51.00;;;;;;5054160;28;20243;-71
2023/03/11 02:51:26;;;;;;;6.75;1.80;;;36.50;49.80;;;;;;5050587;28;20193;-71
2023/03/11 02:53:59;;;;;;;13.18;2.35;;;36.50;47.50;;;;;;5050212;28;20200;-71
2023/03/11 02:56:27;;;;;;;7.28;2.40;;;36.60;49.30;;;;;;5051927;28;20547;-72
2023/03/11 02:58:58;;;;;;;6.22;2.42;;;36.60;49.40;;;;;;5054662;28;20208;-71
2023/03/11 03:01:26;;;;;;;5.38;1.83;;;36.80;50.40;;;;;;5050327;28;20680;-71
2023/03/11 03:03:54;;;;;;;5.57;1.85;;;37.00;52.00;;;;;;5051434;28;20597;-71
2023/03/11 03:06:23;;;;;;;13.20;2.85;;;36.90;48.10;;;;;;5053696;28;20250;-71
2023/03/11 03:08:51;;;;;;;8.95;2.80;;;36.40;49.50;;;;;;5053196;28;20208;-72
2023/03/11 03:11:19;;;;;;;10.05;2.40;;;36.20;48.10;;;;;;5051131;28;20184;-71
2023/03/11 03:13:47;;;;;;;4.55;2.42;;;36.50;50.20;;;;;;5050521;28;20600;-73
2023/03/11 03:16:15;;;;;;;9.40;2.42;;;36.60;43.10;;;;;;5054272;28;20185;-71
2023/03/11 03:18:43;;;;;;;14.00;3.30;;;36.40;43.10;;;;;;5053861;28;20183;-71
2023/03/11 03:21:10;;;;;;;12.57;2.70;;;36.50;42.90;;;;;;5052994;28;20290;-71
2023/03/11 03:23:38;;;;;;;4.13;2.00;;;36.40;45.00;;;;;;5053686;28;20203;-71
2023/03/11 03:26:06;;;;;;;4.57;2.13;;;36.80;47.40;;;;;;5052126;28;20246;-71
2023/03/11 03:28:34;;;;;;;5.18;2.35;;;37.00;48.00;;;;;;5053796;28;20169;-71
2023/03/11 03:31:09;;;;;;;5.13;2.00;;;36.90;42.80;;;;;;5052487;28;20215;-70
2023/03/11 03:33:37;;;;;;;3.13;2.15;;;36.60;43.00;;;;;;5053361;28;20204;-70
2023/03/11 03:36:10;;;;;;;4.93;2.20;;;36.70;41.90;;;;;;5054000;28;20177;-72
2023/03/11 03:38:38;;;;;;;5.82;2.08;;;36.60;40.80;;;;;;5054080;28;20204;-70
2023/03/11 03:41:06;;;;;;;6.13;3.05;;;36.90;42.80;;;;;;5051630;28;20196;-71
2023/03/11 03:43:34;;;;;;;6.85;2.53;;;36.90;45.50;;;;;;5053515;28;20169;-71
2023/03/11 03:46:04;;;;;;;10.60;2.75;;;36.50;42.50;;;;;;5053539;28;20237;-72
2023/03/11 03:48:32;;;;;;;4.30;2.22;;;36.10;40.70;;;;;;5053250;28;20172;-72
2023/03/11 03:51:08;;;;;;;5.18;2.20;;;36.00;39.90;;;;;;5047422;28;20667;-72
2023/03/11 03:53:37;;;;;;;5.63;2.33;;;36.30;40.40;;;;;;5033955;28;20248;-71
2023/03/11 03:56:10;;;;;;;6.53;2.40;;;36.30;40.40;;;;;;5033446;28;20658;-73
2023/03/11 03:58:38;;;;;;;3.38;2.33;;;35.90;40.20;;;;;;5044298;28;20258;-72
2023/03/11 04:01:07;;;;;;;6.13;2.05;;;36.00;41.00;;;;;;5051469;28;20245;-75
2023/03/11 04:03:35;;;;;;;3.30;2.10;;;36.10;39.80;;;;;;5051486;28;20199;-72
2023/03/11 04:06:10;;;;;;;5.65;2.28;;;36.20;40.00;;;;;;5052706;28;20196;-72
2023/03/11 04:08:39;;;;;;;7.57;2.50;;;36.00;40.50;;;;;;5050989;28;20233;-72
2023/03/11 04:11:07;;;;;;;6.20;2.50;;;36.30;41.70;;;;;;5050129;28;20213;-73
2023/03/11 04:13:34;;;;;;;3.83;2.40;;;36.40;37.80;;;;;;5052145;28;20184;-73
2023/03/11 04:16:07;;;;;;;5.93;2.47;;;36.30;36.70;;;;;;5049622;28;20663;-72
2023/03/11 04:18:35;;;;;;;3.47;1.90;;;36.30;39.00;;;;;;5051907;28;20192;-72
2023/03/11 04:21:06;;;;;;;4.90;2.50;;;36.00;38.10;;;;;;5051790;28;20370;-71
2023/03/11 04:23:34;;;;;;;5.65;2.20;;;36.00;39.20;;;;;;5052748;28;20173;-71
2023/03/11 04:26:02;;;;;;;3.88;2.00;;;35.90;38.50;;;;;;5052316;28;20177;-71
2023/03/11 04:28:30;;;;;;;6.60;2.78;;;35.90;38.80;;;;;;5039461;28;20256;-71
2023/03/11 04:30:58;;;;;;;12.23;2.92;;;36.00;39.50;;;;;;5032310;28;20304;-71
2023/03/11 04:33:25;;;;;;;8.63;2.60;;;35.90;38.10;;;;;;5032654;28;20173;-73
2023/03/11 04:35:53;;;;;;;4.63;2.38;;;35.40;39.30;;;;;;5032700;28;20545;-72
2023/03/11 04:38:21;;;;;;;6.68;2.33;;;35.50;37.70;;;;;;5032616;28;20165;-71
2023/03/11 04:40:49;;;;;;;8.18;2.65;;;35.60;38.50;;;;;;5032018;28;20304;-71
2023/03/11 04:43:16;;;;;;;7.80;2.47;;;35.80;38.10;;;;;;5031686;28;20208;-71
2023/03/11 04:45:44;;;;;;;8.45;2.65;;;36.00;36.30;;;;;;5032555;28;20180;-71
2023/03/11 04:48:12;;;;;;;5.80;2.40;;;36.10;35.90;;;;;;5038851;28;20195;-72
2023/03/11 04:50:40;;;;;;;5.45;2.80;;;35.90;36.70;;;;;;5050597;28;20208;-71
2023/03/11 04:53:07;;;;;;;7.38;2.20;;;36.10;38.30;;;;;;5050828;28;20183;-73
2023/03/11 04:55:35;;;;;;;7.93;2.83;;;36.10;37.10;;;;;;5051602;28;20181;-71
2023/03/11 04:58:03;;;;;;;5.63;2.83;;;36.20;36.80;;;;;;5052157;28;20669;-74
2023/03/11 05:00:31;;;;;;;18.30;3.30;;;36.10;34.40;;;;;;5051983;28;20713;-72
2023/03/11 05:02:58;;;;;;;12.82;3.30;;;36.00;34.70;;;;;;5051586;28;20539;-72
2023/03/11 05:05:26;;;;;;;5.10;2.83;;;35.50;34.00;;;;;;5051902;28;20227;-73
2023/03/11 05:07:54;;;;;;;4.22;2.63;;;35.90;34.70;;;;;;5051183;28;20172;-70
2023/03/11 05:10:21;;;;;;;7.97;2.92;;;36.00;35.40;;;;;;5051204;28;20283;-72
2023/03/11 05:12:53;;;;;;;4.20;3.30;;;36.20;35.20;;;;;;5051377;28;20173;-72
2023/03/11 05:15:21;;;;;;;3.10;2.38;;;36.10;33.80;;;;;;5051485;28;20188;-70
2023/03/11 05:17:48;;;;;;;19.52;3.80;;;35.50;34.50;;;;;;5050123;28;20192;-70
2023/03/11 05:20:17;;;;;;;6.95;3.00;;;35.50;34.50;;;;;;5050610;28;20184;-71
2023/03/11 05:22:45;;;;;;;6.30;3.47;;;35.70;33.00;;;;;;5051023;28;20543;-70
2023/03/11 05:25:12;;;;;;;11.35;3.80;;;36.00;34.50;;;;;;5051023;28;20222;-71
2023/03/11 05:27:40;;;;;;;6.47;3.40;;;36.10;31.50;;;;;;5049945;28;20650;-72
2023/03/11 05:30:08;;;;;;;9.27;3.13;;;36.30;32.10;;;;;;5051506;28;20216;-71
2023/03/11 05:32:35;;;;;;;7.10;3.08;;;36.20;33.10;;;;;;5051235;28;20173;-71
2023/03/11 05:35:03;;;;;;;6.53;2.75;;;36.20;33.50;;;;;;5051554;28;20180;-71
2023/03/11 05:37:34;;;;;;;8.45;3.47;;;36.10;32.70;;;;;;5050236;28;20536;-70
2023/03/11 05:40:05;;;;;;;4.60;3.13;;;35.60;31.30;;;;;;5049236;28;20560;-72
2023/03/11 05:42:33;;;;;;;5.55;2.90;;;35.30;31.60;;;;;;5051480;28;20267;-71
2023/03/11 05:45:01;;;;;;;8.10;2.50;;;35.00;33.00;;;;;;5050234;28;20275;-71
2023/03/11 05:47:28;;;;;;;11.43;2.72;;;34.60;45.90;;;;;;5051002;28;20176;-72
2023/03/11 05:49:56;;;;;;;4.05;1.58;;;34.10;50.10;;;;;;5051160;28;20211;-70
2023/03/11 05:52:23;;;;;;;6.97;1.98;;;33.80;75.80;;;;;;5050347;28;20268;-72
2023/03/11 05:54:51;;;;;;;4.20;1.83;;;33.70;84.20;;;;;;5050562;28;20277;-72
2023/03/11 05:57:19;;;;;;;9.43;2.55;;;33.50;90.60;;;;;;5051284;28;20172;-71
2023/03/11 05:59:47;;;;;;;6.25;1.70;;;33.40;93.90;;;;;;5051103;28;20180;-71
2023/03/11 06:02:14;;;;;;;14.82;2.17;;;33.30;95.30;;;;;;5050903;28;20589;-71
2023/03/11 06:04:42;;;;;;;8.38;1.90;;;33.30;98.80;;;;;;5049352;28;20241;-72
2023/03/11 06:07:11;;;;;;;10.00;1.92;;;33.00;99.50;;;;;;5051178;28;20181;-71
2023/03/11 06:09:38;;;;;;;7.13;1.33;;;32.70;99.90;;;;;;5049284;28;20204;-71
2023/03/11 06:12:06;;;;;;;6.35;1.90;;;32.30;99.90;;;;;;5049998;28;20181;-71
2023/03/11 06:14:33;;;;;;;5.75;1.77;;;32.00;99.90;;;;;;5051088;28;20177;-71
2023/03/11 06:17:02;;;;;;;5.45;1.45;;;31.80;99.90;;;;;;5049933;28;20185;-71
2023/03/11 06:19:30;;;;;;;5.03;1.70;;;31.60;99.90;;;;;;5068083;28;20203;-71
2023/03/11 06:21:57;;;;;;;5.50;1.75;;;31.40;99.90;;;;;;5069624;28;20224;-71
2023/03/11 06:24:24;;;;;;;8.60;2.00;;;31.20;99.90;;;;;;5054436;28;20259;-72
2023/03/11 06:26:53;;;;;;;6.72;1.55;;;31.10;99.90;;;;;;5049802;28;20242;-72
2023/03/11 06:29:23;;;;;;;7.80;1.73;;;30.90;99.90;;;;;;5049909;28;20259;-71
2023/03/11 06:35:13;;;;;;;8.53;2.30;;;31.30;99.90;;;;;;5030328;28;20196;-71
2023/03/11 06:37:41;;;;;;;5.10;2.22;;;31.40;99.90;;;;;;5038213;28;20185;-71
2023/03/11 06:40:09;;;;;;;6.70;1.77;;;31.40;99.90;;;;;;5030574;28;20189;-72
2023/03/11 06:42:37;;;;;;;12.40;2.10;;;31.50;99.90;;;;;;5031226;28;20196;-72
2023/03/11 06:45:05;;;;;;;5.47;1.88;;;31.40;99.90;;;;;;5046435;28;20562;-72
2023/03/11 06:47:32;;;;;;;7.07;2.03;;;31.40;99.90;;;;;;5049358;28;20177;-72
2023/03/11 06:50:05;;;;;;;7.07;1.80;;;31.50;99.90;;;;;;5050198;28;20228;-72
2023/03/11 06:52:32;;;;;;;6.57;2.20;;;31.20;99.90;;;;;;5051072;28;20192;-70
2023/03/11 06:55:00;;;;;;;4.57;2.10;;;30.90;99.90;;;;;;5050398;28;20181;-71
2023/03/11 06:57:29;;;;;;;4.35;2.08;;;30.70;99.90;;;;;;5049651;28;20272;-72
2023/03/11 06:59:57;;;;;;;6.80;2.33;;;30.50;99.90;;;;;;5049478;28;20196;-72
2023/03/11 07:02:24;;;;;;;6.83;1.90;;;30.30;99.90;;;;;;5050547;28;20649;-72
2023/03/11 07:04:52;;;;;;;7.33;2.30;;;30.10;99.90;;;;;;5050980;28;20638;-72
2023/03/11 07:07:20;;;;;;;7.73;2.70;;;30.00;99.90;;;;;;5053528;28;20271;-71
2023/03/11 07:09:47;;;;;;;7.17;2.77;;;29.90;99.90;;;;;;5052859;28;20234;-72
2023/03/11 07:12:15;;;;;;;8.70;2.30;;;29.80;99.90;;;;;;5054507;28;20188;-72
2023/03/11 07:14:42;;;;;;;5.70;2.10;;;29.80;99.90;;;;;;5053270;28;20207;-71
2023/03/11 07:17:09;;;;;;;11.63;2.30;;;29.70;99.90;;;;;;5051099;28;20180;-71
2023/03/11 07:19:37;;;;;;;6.07;2.23;;;29.60;99.90;;;;;;5034297;28;20177;-71
2023/03/11 07:22:04;;;;;;;5.37;2.30;;;29.70;99.90;;;;;;5034298;28;20229;-72
2023/03/11 07:24:31;;;;;;;7.93;2.43;;;29.60;99.90;;;;;;5032896;28;20575;-71
2023/03/11 07:26:59;;;;;;;7.40;2.07;;;29.60;99.90;;;;;;5051739;28;20689;-72
2023/03/11 07:29:33;;;;;;;6.57;2.00;;;29.60;99.90;;;;;;5034168;28;20244;-71
2023/03/11 07:32:00;;;;;;;3.63;1.80;;;29.60;99.90;;;;;;5033861;28;20212;-72
2023/03/11 07:34:28;;;;;;;9.07;2.47;;;29.50;99.90;;;;;;5033771;28;20173;-71
2023/03/11 07:36:55;;;;;;;6.00;2.33;;;29.50;99.90;;;;;;5044444;28;20500;-71
2023/03/11 07:39:22;;;;;;;6.77;2.00;;;29.50;99.90;;;;;;5052348;28;20192;-71
2023/03/11 07:41:50;;;;;;;3.33;2.13;;;29.40;99.90;;;;;;5053747;28;20299;-70
2023/03/11 07:54:23;;;;;;;6.53;2.00;;;29.20;99.90;;;;;;5032416;28;20607;-71
2023/03/11 07:56:50;;;;;;;6.33;2.10;;;29.20;99.90;;;;;;5033635;28;20208;-71
2023/03/11 07:59:18;;;;;;;8.50;2.77;;;29.10;99.90;;;;;;5048121;28;20184;-71
2023/03/11 08:01:46;;;;;;;7.43;2.63;;;29.00;99.90;;;;;;5054242;28;20180;-71
2023/03/11 08:04:15;;;;;;;7.87;2.03;;;28.90;99.90;;;;;;5044663;28;20532;-70
2023/03/11 08:06:45;;;;;;;7.70;2.30;;;28.80;99.90;;;;;;5033105;28;20177;-71
2023/03/11 08:09:13;;;;;;;8.63;2.20;;;28.70;99.90;;;;;;5036016;28;20593;-71
2023/03/11 08:11:40;;;;;;;8.30;2.43;;;28.70;99.90;;;;;;5052229;28;20584;-71
2023/03/11 08:14:08;;;;;;;8.53;2.93;;;28.60;99.90;;;;;;5052435;28;20180;-71
2023/03/11 08:16:36;;;;;;;11.37;2.17;;;28.60;99.90;;;;;;5051694;28;20173;-71
2023/03/11 08:19:03;;;;;;;8.67;2.67;;;28.40;99.90;;;;;;5039127;28;20189;-71
2023/03/11 08:21:31;;;;;;;9.00;2.83;;;28.40;99.90;;;;;;5050580;28;20294;-71
2023/03/11 08:24:00;;;;;;;7.57;2.10;;;28.30;99.90;;;;;;5050264;28;20184;-71
2023/03/11 08:26:28;;;;;;;6.20;2.43;;;28.20;99.90;;;;;;5051965;28;20181;-70
2023/03/11 08:28:56;;;;;;;6.80;2.77;;;28.20;99.90;;;;;;5051113;28;20197;-71
2023/03/11 08:31:27;;;;;;;8.07;2.60;;;28.10;99.90;;;;;;5051797;28;20180;-71
2023/03/11 08:34:01;;;;;;;6.73;2.43;;;28.10;99.90;;;;;;5042135;28;20192;-71
2023/03/11 08:36:29;;;;;;;6.90;2.30;;;28.00;99.90;;;;;;5046752;28;20183;-71
2023/03/11 08:38:57;;;;;;;11.27;2.80;;;27.90;99.90;;;;;;5051635;28;20190;-71
2023/03/11 08:41:25;;;;;;;5.93;2.30;;;27.80;99.90;;;;;;5052597;28;20176;-72
2023/03/11 08:43:52;;;;;;;4.23;2.03;;;27.70;99.90;;;;;;5052321;28;20192;-72
2023/03/11 08:46:37;;;;;;;11.47;2.77;;;27.60;99.90;;;;;;5051008;28;20216;-72
2023/03/11 08:49:05;;;;;;;9.17;3.07;;;27.50;99.90;;;;;;5051314;28;20216;-73
2023/03/11 08:51:34;;;;;;;7.43;2.30;;;27.50;99.90;;;;;;5052509;28;20220;-73
2023/03/11 08:54:02;;;;;;;9.57;3.77;;;27.30;99.90;;;;;;5050973;28;20235;-72
2023/03/11 08:56:29;;;;;;;6.90;2.47;;;27.50;99.90;;;;;;5052325;28;20219;-72
2023/03/11 08:58:57;;;;;;;8.60;2.70;;;27.50;99.90;;;;;;5052170;28;20173;-71
2023/03/11 09:01:25;;;;;;;7.17;2.90;;;27.40;99.90;;;;;;5034213;28;20185;-71
2023/03/11 09:03:52;;;;;;;6.67;2.87;;;27.30;99.90;;;;;;5047981;28;20230;-71
2023/03/11 09:06:20;;;;;;;14.00;3.50;;;27.20;99.90;;;;;;5051944;28;20262;-71
2023/03/11 09:08:48;;;;;;;8.90;2.83;;;27.20;99.90;;;;;;5051577;28;20264;-72
2023/03/11 09:11:17;;;;;;;9.13;2.70;;;27.10;99.90;;;;;;5052114;28;20184;-72
2023/03/11 09:13:44;;;;;;;5.90;2.47;;;27.00;99.90;;;;;;5038800;28;20195;-72
2023/03/11 09:16:18;;;;;;;5.63;2.97;;;27.00;99.90;;;;;;5030549;28;20189;-71
2023/03/11 09:18:46;;;;;;;6.57;2.93;;;27.10;99.90;;;;;;5032279;28;20184;-72
2023/03/11 09:21:13;;;;;;;7.93;3.43;;;27.10;99.90;;;;;;5047405;28;20236;-71
2023/03/11 09:23:41;;;;;;;8.17;3.10;;;27.00;99.90;;;;;;5043534;28;20662;-72
2023/03/11 09:26:08;;;;;;;5.20;2.57;;;26.90;99.90;;;;;;5051942;28;20646;-72
2023/03/11 09:28:36;;;;;;;7.03;2.80;;;26.80;99.90;;;;;;5051185;28;20177;-71
2023/03/11 09:31:03;;;;;;;8.60;3.00;;;26.80;99.90;;;;;;5050252;28;20216;-73
2023/03/11 09:33:31;;;;;;;9.07;3.03;;;26.70;99.90;;;;;;5040633;28;20655;-71
2023/03/11 09:35:59;;;;;;;7.63;2.87;;;26.60;99.90;;;;;;5031209;28;20185;-73
2023/03/11 09:38:26;;;;;;;4.13;2.63;;;26.60;99.90;;;;;;5047115;28;20188;-74
2023/03/11 09:41:03;;;;;;;7.23;2.67;;;26.50;99.90;;;;;;5051392;28;20184;-71
2023/03/11 09:43:36;;;;;;;4.53;2.40;;;26.60;99.90;;;;;;5044438;28;20181;-72
2023/03/11 09:46:21;;;;;;;4.10;2.20;;;26.60;99.90;;;;;;5031754;28;20180;-71
2023/03/11 09:49:14;;;;;;;7.67;3.13;;;26.70;99.90;;;;;;5042494;28;20722;-71
2023/03/11 09:52:03;;;;;;;7.23;2.83;;;26.70;99.90;;;;;;5051433;28;20902;-72
2023/03/11 09:54:54;;;;;;;5.77;2.80;;;26.80;99.90;;;;;;5031293;28;20209;-71
2023/03/11 09:57:31;;;;;;;6.97;2.60;;;26.80;99.90;;;;;;5031556;28;20204;-72
2023/03/11 10:00:01;;;;;;;12.33;3.20;;;26.70;99.90;;;;;;5032589;28;20185;-71
2023/03/11 10:02:28;;;;;;;6.17;2.97;;;26.60;99.90;;;;;;5032493;28;20181;-71
2023/03/11 10:04:59;;;;;;;7.43;2.43;;;26.50;99.90;;;;;;5032363;28;20181;-71
2023/03/11 10:07:43;;;;;;;9.20;2.50;;;26.40;99.90;;;;;;5032572;28;20185;-71
2023/03/11 10:10:15;;;;;;;5.37;2.73;;;26.40;99.90;;;;;;5038148;28;20223;-71
2023/03/11 10:13:04;;;;;;;6.43;2.37;;;26.30;99.90;;;;;;5051551;28;20191;-71
2023/03/11 10:15:54;;;;;;;10.10;2.80;;;26.30;99.90;;;;;;5048997;28;20177;-72
2023/03/11 10:18:38;;;;;;;8.73;2.70;;;26.20;99.90;;;;;;5052559;28;20169;-72
2023/03/11 10:21:12;;;;;;;4.47;2.40;;;26.20;99.90;;;;;;5052206;28;20276;-71
2023/03/11 10:24:03;;;;;;;8.07;2.93;;;26.10;99.90;;;;;;5052264;28;20191;-71
2023/03/11 10:26:44;;;;;;;7.27;2.93;;;26.00;99.90;;;;;;5050756;28;20584;-70
2023/03/11 10:29:20;;;;;;;5.87;2.30;;;25.90;99.90;;;;;;5040156;28;20254;-71
2023/03/11 10:32:19;;;;;;;6.30;2.50;;;25.90;99.90;;;;;;5045333;28;20554;-71
2023/03/11 10:35:00;;;;;;;7.80;2.57;;;25.80;99.90;;;;;;5034348;28;20185;-71
2023/03/11 10:37:36;;;;;;;5.70;2.87;;;25.80;99.90;;;;;;5032927;28;20177;-70
2023/03/11 10:40:32;;;;;;;6.90;2.97;;;25.80;99.90;;;;;;5052554;28;20176;-71
2023/03/11 10:43:22;;;;;;;6.57;3.13;;;25.90;99.90;;;;;;5050592;28;20181;-70
2023/03/11 10:45:51;;;;;;;8.73;3.37;;;25.80;99.90;;;;;;5055818;28;20191;-71
2023/03/11 10:48:20;;;;;;;7.23;3.40;;;25.70;99.90;;;;;;5056031;28;20183;-70
2023/03/11 10:51:10;;;;;;;10.03;3.90;;;25.70;99.90;;;;;;5055951;28;20216;-71
2023/03/11 10:53:48;;;;;;;7.30;4.00;;;25.70;99.90;;;;;;5054921;28;20191;-71
2023/03/11 10:56:37;;;;;;;9.40;3.73;;;25.60;99.90;;;;;;5054476;28;20218;-71
2023/03/11 10:59:20;;;;;;;12.20;4.30;;;25.60;99.90;;;;;;5054404;28;20172;-71
2023/03/11 11:01:59;;;;;;;8.57;3.93;;;25.50;99.90;;;;;;5054144;28;20242;-72
2023/03/11 11:04:38;;;;;;;6.50;3.70;;;25.50;99.90;;;;;;5055592;28;20326;-69
2023/03/11 11:07:27;;;;;;;7.33;4.27;;;25.40;99.90;;;;;;5054931;28;20189;-72
2023/03/11 11:10:16;;;;;;;6.07;3.47;;;25.40;99.90;;;;;;5044739;28;20220;-72
2023/03/11 11:13:15;;;;;;;5.53;3.80;;;25.40;99.90;;;;;;5046397;28;20181;-71
2023/03/11 11:16:03;;;;;;;14.17;8.33;;;25.30;99.90;;;;;;5056123;28;20212;-71
2023/03/11 11:18:44;;;;;;;12.47;7.57;;;25.20;99.90;;;;;;5055865;28;20185;-70
2023/03/11 11:21:51;;;;;;;13.17;6.80;;;25.20;99.90;;;;;;5036521;28;20221;-72
2023/03/11 11:24:26;;;;;;;19.93;11.10;;;25.10;99.90;;;;;;5049092;28;20287;-72
2023/03/11 11:27:17;;;;;;;15.80;7.07;;;25.10;99.90;;;;;;5054526;28;20249;-72
2023/03/11 11:29:47;;;;;;;14.87;7.17;;;25.20;99.90;;;;;;5051557;28;20216;-72
2023/03/11 11:32:25;;;;;;;10.23;5.27;;;25.20;99.90;;;;;;5054572;28;20184;-73
2023/03/11 11:34:58;;;;;;;8.90;4.53;;;25.10;99.90;;;;;;5055168;28;20179;-73
2023/03/11 11:37:30;;;;;;;12.37;6.37;;;25.00;99.90;;;;;;5053790;28;20524;-72
2023/03/11 11:40:15;;;;;;;10.90;6.70;;;24.90;99.90;;;;;;5054609;28;20265;-72
2023/03/11 11:42:54;;;;;;;13.47;6.10;;;24.80;99.90;;;;;;5053089;28;20180;-72
2023/03/11 11:45:34;;;;;;;11.73;5.67;;;24.80;99.90;;;;;;5054376;28;20184;-72
2023/03/11 11:48:14;;;;;;;13.47;6.47;;;24.80;99.90;;;;;;5054699;28;20203;-72
2023/03/11 11:50:55;;;;;;;15.27;7.10;;;24.80;99.90;;;;;;5053715;28;20651;-73
2023/03/11 11:53:28;;;;;;;11.27;6.93;;;24.70;99.90;;;;;;5054173;28;20550;-72
2023/03/11 11:55:55;;;;;;;9.50;5.80;;;24.60;99.90;;;;;;5053389;28;20255;-73
2023/03/11 11:58:23;;;;;;;12.63;6.00;;;24.60;99.90;;;;;;5054800;28;20184;-72
2023/03/11 12:01:13;;;;;;;8.90;5.00;;;24.50;99.90;;;;;;5053979;28;20184;-72
2023/03/11 12:04:19;;;;;;;5.87;4.17;;;24.50;99.90;;;;;;5041704;28;20199;-72
2023/03/11 12:07:08;;;;;;;8.50;4.80;;;24.50;99.90;;;;;;5049315;28;20279;-72
2023/03/11 12:09:51;;;;;;;11.43;4.30;;;24.50;99.90;;;;;;5038476;28;20209;-72
2023/03/11 12:12:43;;;;;;;9.77;4.67;;;24.40;99.90;;;;;;5049032;28;20596;-71
2023/03/11 12:15:25;;;;;;;7.77;4.27;;;24.30;99.90;;;;;;5052828;28;20356;-71
2023/03/11 12:18:02;;;;;;;9.73;5.00;;;24.40;99.90;;;;;;5053807;28;20217;-72
2023/03/11 12:20:47;;;;;;;5.93;3.80;;;24.30;99.90;;;;;;5054197;28;20184;-73
2023/03/11 12:23:23;;;;;;;6.07;3.87;;;24.20;99.90;;;;;;5053068;28;20657;-72
2023/03/11 12:26:18;;;;;;;10.87;3.73;;;24.30;99.90;;;;;;5054056;28;20233;-73
2023/03/11 12:28:58;;;;;;;6.47;3.77;;;24.30;99.90;;;;;;5054482;28;20180;-72
2023/03/11 12:31:30;;;;;;;18.57;4.90;;;24.30;99.90;;;;;;5054134;28;20219;-72
2023/03/11 12:34:03;;;;;;;27.77;16.17;;;24.30;99.90;;;;;;5054039;28;20191;-73
2023/03/11 12:36:36;;;;;;;35.63;22.10;;;24.30;99.90;;;;;;5053888;28;20185;-73
2023/03/11 12:39:28;;;;;;;77.60;51.10;;;24.40;99.90;;;;;;5054097;28;20181;-73
2023/03/11 12:42:39;;;;;;;77.67;51.97;;;24.40;99.90;;;;;;5052508;28;20642;-72
2023/03/11 12:46:00;;;;;;;94.50;64.03;;;24.30;99.90;;;;;;5034323;28;20200;-72
2023/03/11 12:48:32;;;;;;;115.43;81.80;;;24.20;99.90;;;;;;5012413;28;20190;-72
2023/03/11 12:51:00;;;;;;;127.90;85.77;;;24.20;99.90;;;;;;5046953;28;20693;-73
2023/03/11 12:53:48;;;;;;;114.60;76.57;;;24.20;99.90;;;;;;5053854;28;20184;-72
2023/03/11 12:56:27;;;;;;;91.63;61.30;;;24.20;99.90;;;;;;5053848;28;20169;-72
2023/03/11 12:59:12;;;;;;;82.10;55.60;;;24.10;99.90;;;;;;5053502;28;20538;-72
2023/03/11 13:01:57;;;;;;;74.07;46.83;;;24.10;99.90;;;;;;5053671;28;20199;-70
2023/03/11 13:04:43;;;;;;;74.87;50.13;;;24.00;99.90;;;;;;5052798;28;20204;-70
2023/03/11 13:08:01;;;;;;;68.77;46.10;;;24.10;99.90;;;;;;5053925;28;20242;-70
2023/03/11 13:10:42;;;;;;;70.40;45.87;;;24.00;99.90;;;;;;5051036;28;20230;-70
2023/03/11 13:13:31;;;;;;;72.33;47.20;;;24.10;99.90;;;;;;5053214;28;20168;-71
2023/03/11 13:16:14;;;;;;;80.20;46.67;;;24.00;99.90;;;;;;5053490;28;20177;-70
2023/03/11 13:18:44;;;;;;;63.57;39.17;;;24.00;99.90;;;;;;5053644;28;20634;-70
2023/03/11 13:21:29;;;;;;;59.07;38.70;;;24.10;99.90;;;;;;5053003;28;20648;-70
2023/03/11 13:24:18;;;;;;;57.00;33.43;;;24.00;99.90;;;;;;5052071;28;20176;-71
2023/03/11 13:27:03;;;;;;;46.77;26.00;;;24.00;99.90;;;;;;5053444;28;20696;-70
2023/03/11 13:29:43;;;;;;;35.87;23.00;;;24.00;99.90;;;;;;5052954;28;20576;-70
2023/03/11 13:32:28;;;;;;;40.83;21.13;;;23.90;99.90;;;;;;5053055;28;20625;-71